sensor_id;sensor_type;location;lat;lon;timestamp;pressure;altitude;pressure_sealevel;temperature;humidity
62708;BME280;48769;51.624;5.886;2024-03-22T00:01:09;101942.22;;;11.65;100.00
62708;BME280;48769;51.624;5.886;2024-03-22T00:03:34;101939.59;;;11.65;100.00
62708;BME280;48769;51.624;5.886;2024-03-22T00:06:00;101939.59;;;11.65;100.00
62708;BME280;48769;51.624;5.886;2024-03-22T00:08:25;101932.38;;;11.68;100.00
62708;BME280;48769;51.624;5.886;2024-03-22T00:10:50;101929.81;;;11.67;100.00
62708;BME280;48769;51.624;5.886;2024-03-22T00:13:15;101926.22;;;11.68;100.00
62708;BME280;48769;51.624;5.886;2024-03-22T00:15:41;101925.28;;;11.69;100.00
62708;BME280;48769;51.624;5.886;2024-03-22T00:18:12;101920.00;;;11.69;100.00
62708;BME280;48769;51.624;5.886;2024-03-22T00:20:37;101914.66;;;11.70;100.00
62708;BME280;48769;51.624;5.886;2024-03-22T00:23:03;101919.03;;;11.72;100.00
62708;BME280;48769;51.624;5.886;2024-03-22T00:25:28;101918.94;;;11.73;100.00
62708;BME280;48769;51.624;5.886;2024-03-22T00:27:55;101913.53;;;11.76;100.00
62708;BME280;48769;51.624;5.886;2024-03-22T00:30:20;101915.22;;;11.79;100.00
62708;BME280;48769;51.624;5.886;2024-03-22T00:32:45;101918.59;;;11.82;100.00
62708;BME280;48769;51.624;5.886;2024-03-22T00:35:11;101906.22;;;11.84;100.00
62708;BME280;48769;51.624;5.886;2024-03-22T00:37:36;101902.50;;;11.88;100.00
62708;BME280;48769;51.624;5.886;2024-03-22T00:40:01;101893.59;;;11.91;100.00
62708;BME280;48769;51.624;5.886;2024-03-22T00:42:27;101901.41;;;11.94;100.00
62708;BME280;48769;51.624;5.886;2024-03-22T00:44:52;101889.84;;;11.97;100.00
62708;BME280;48769;51.624;5.886;2024-03-22T00:47:17;101886.94;;;12.03;100.00
62708;BME280;48769;51.624;5.886;2024-03-22T00:49:43;101887.78;;;12.03;100.00
62708;BME280;48769;51.624;5.886;2024-03-22T00:52:08;101883.28;;;12.05;100.00
62708;BME280;48769;51.624;5.886;2024-03-22T00:54:33;101873.41;;;12.09;100.00
62708;BME280;48769;51.624;5.886;2024-03-22T00:56:59;101860.97;;;12.11;100.00
62708;BME280;48769;51.624;5.886;2024-03-22T00:59:24;101852.09;;;12.12;100.00
62708;BME280;48769;51.624;5.886;2024-03-22T01:01:49;101858.22;;;12.14;100.00
62708;BME280;48769;51.624;5.886;2024-03-22T01:04:15;101846.56;;;12.18;100.00
62708;BME280;48769;51.624;5.886;2024-03-22T01:06:40;101846.56;;;12.18;100.00
62708;BME280;48769;51.624;5.886;2024-03-22T01:09:06;101828.88;;;12.19;100.00
62708;BME280;48769;51.624;5.886;2024-03-22T01:11:32;101831.50;;;12.19;100.00
62708;BME280;48769;51.624;5.886;2024-03-22T01:13:57;101824.44;;;12.19;100.00
62708;BME280;48769;51.624;5.886;2024-03-22T01:16:23;101820.78;;;12.22;100.00
62708;BME280;48769;51.624;5.886;2024-03-22T01:18:48;101812.91;;;12.20;100.00
62708;BME280;48769;51.624;5.886;2024-03-22T01:21:13;101812.06;;;12.20;100.00
62708;BME280;48769;51.624;5.886;2024-03-22T01:23:39;101818.22;;;12.20;100.00
62708;BME280;48769;51.624;5.886;2024-03-22T01:26:04;101802.44;;;12.17;100.00
62708;BME280;48769;51.624;5.886;2024-03-22T01:28:29;101807.75;;;12.17;100.00
62708;BME280;48769;51.624;5.886;2024-03-22T01:30:54;101806.91;;;12.16;100.00
62708;BME280;48769;51.624;5.886;2024-03-22T01:33:20;101815.69;;;12.17;100.00
62708;BME280;48769;51.624;5.886;2024-03-22T01:35:45;101813.84;;;12.19;100.00
62708;BME280;48769;51.624;5.886;2024-03-22T01:38:11;101820.00;;;12.20;100.00
62708;BME280;48769;51.624;5.886;2024-03-22T01:40:36;101816.50;;;12.19;100.00
62708;BME280;48769;51.624;5.886;2024-03-22T01:43:01;101794.50;;;12.17;100.00
62708;BME280;48769;51.624;5.886;2024-03-22T01:45:31;101805.91;;;12.19;100.00
62708;BME280;48769;51.624;5.886;2024-03-22T01:47:57;101794.38;;;12.20;100.00
62708;BME280;48769;51.624;5.886;2024-03-22T01:50:24;101794.28;;;12.22;100.00
62708;BME280;48769;51.624;5.886;2024-03-22T01:52:50;101787.41;;;12.18;100.00
62708;BME280;48769;51.624;5.886;2024-03-22T01:55:16;101775.88;;;12.19;100.00
62708;BME280;48769;51.624;5.886;2024-03-22T01:57:42;101777.69;;;12.18;100.00
62708;BME280;48769;51.624;5.886;2024-03-22T02:00:07;101779.47;;;12.18;100.00
62708;BME280;48769;51.624;5.886;2024-03-22T02:02:36;101773.41;;;12.15;100.00
62708;BME280;48769;51.624;5.886;2024-03-22T02:05:20;101769.09;;;12.13;100.00
62708;BME280;48769;51.624;5.886;2024-03-22T02:07:46;101774.38;;;12.13;100.00
62708;BME280;48769;51.624;5.886;2024-03-22T02:10:12;101775.28;;;12.12;100.00
62708;BME280;48769;51.624;5.886;2024-03-22T02:12:38;101776.03;;;12.15;100.00
62708;BME280;48769;51.624;5.886;2024-03-22T02:15:04;101778.69;;;12.15;100.00
62708;BME280;48769;51.624;5.886;2024-03-22T02:17:30;101777.81;;;12.15;100.00
62708;BME280;48769;51.624;5.886;2024-03-22T02:19:55;101776.94;;;12.14;100.00
62708;BME280;48769;51.624;5.886;2024-03-22T02:22:20;101777.03;;;12.13;100.00
62708;BME280;48769;51.624;5.886;2024-03-22T02:24:46;101760.34;;;12.11;100.00
62708;BME280;48769;51.624;5.886;2024-03-22T02:27:14;101763.91;;;12.10;100.00
62708;BME280;48769;51.624;5.886;2024-03-22T02:29:39;101759.59;;;12.07;100.00
62708;BME280;48769;51.624;5.886;2024-03-22T02:32:05;101760.59;;;12.05;100.00
62708;BME280;48769;51.624;5.886;2024-03-22T02:34:31;101758.88;;;12.04;100.00
62708;BME280;48769;51.624;5.886;2024-03-22T02:36:56;101759.88;;;12.01;100.00
62708;BME280;48769;51.624;5.886;2024-03-22T02:39:25;101764.22;;;12.02;100.00
62708;BME280;48769;51.624;5.886;2024-03-22T02:41:50;101758.16;;;12.00;100.00
62708;BME280;48769;51.624;5.886;2024-03-22T02:44:16;101754.69;;;11.98;100.00
62708;BME280;48769;51.624;5.886;2024-03-22T02:46:41;101753.00;;;11.97;100.00
62708;BME280;48769;51.624;5.886;2024-03-22T02:49:06;101750.25;;;11.99;100.00
62708;BME280;48769;51.624;5.886;2024-03-22T02:51:32;101748.53;;;11.98;100.00
62708;BME280;48769;51.624;5.886;2024-03-22T02:53:57;101741.41;;;12.00;100.00
62708;BME280;48769;51.624;5.886;2024-03-22T02:56:22;101732.53;;;12.01;100.00
62708;BME280;48769;51.624;5.886;2024-03-22T02:58:51;101720.09;;;12.03;100.00
62708;BME280;48769;51.624;5.886;2024-03-22T03:01:16;101716.44;;;12.05;100.00
62708;BME280;48769;51.624;5.886;2024-03-22T03:03:41;101712.78;;;12.08;100.00
62708;BME280;48769;51.624;5.886;2024-03-22T03:06:07;101701.34;;;12.07;100.00
62708;BME280;48769;51.624;5.886;2024-03-22T03:08:33;101705.78;;;12.07;100.00
62708;BME280;48769;51.624;5.886;2024-03-22T03:10:58;101705.78;;;12.07;100.00
62708;BME280;48769;51.624;5.886;2024-03-22T03:13:24;101697.03;;;12.05;100.00
62708;BME280;48769;51.624;5.886;2024-03-22T03:15:51;101696.19;;;12.04;100.00
62708;BME280;48769;51.624;5.886;2024-03-22T03:18:16;101698.91;;;12.03;100.00
62708;BME280;48769;51.624;5.886;2024-03-22T03:20:41;101694.47;;;12.03;100.00
62708;BME280;48769;51.624;5.886;2024-03-22T03:23:07;101690.97;;;12.03;100.00
62708;BME280;48769;51.624;5.886;2024-03-22T03:25:32;101676.78;;;12.04;100.00
62708;BME280;48769;51.624;5.886;2024-03-22T03:27:57;101670.69;;;12.02;100.00
62708;BME280;48769;51.624;5.886;2024-03-22T03:30:22;101667.25;;;12.00;100.00
62708;BME280;48769;51.624;5.886;2024-03-22T03:32:48;101669.09;;;11.98;100.00
62708;BME280;48769;51.624;5.886;2024-03-22T03:35:13;101667.41;;;11.97;100.00
62708;BME280;48769;51.624;5.886;2024-03-22T03:37:41;101665.66;;;11.96;100.00
62708;BME280;48769;51.624;5.886;2024-03-22T03:40:07;101650.78;;;11.93;100.00
62708;BME280;48769;51.624;5.886;2024-03-22T03:42:32;101649.19;;;11.89;100.00
62708;BME280;48769;51.624;5.886;2024-03-22T03:44:58;101645.69;;;11.88;100.00
62708;BME280;48769;51.624;5.886;2024-03-22T03:47:23;101643.16;;;11.85;100.00
62708;BME280;48769;51.624;5.886;2024-03-22T03:49:48;101640.63;;;11.82;100.00
62708;BME280;48769;51.624;5.886;2024-03-22T03:52:16;101648.66;;;11.81;100.00
62708;BME280;48769;51.624;5.886;2024-03-22T03:54:41;101645.28;;;11.77;100.00
62708;BME280;48769;51.624;5.886;2024-03-22T03:57:07;101643.53;;;11.76;100.00
62708;BME280;48769;51.624;5.886;2024-03-22T03:59:32;101642.75;;;11.74;100.00
62708;BME280;48769;51.624;5.886;2024-03-22T04:01:58;101633.06;;;11.73;100.00
62708;BME280;48769;51.624;5.886;2024-03-22T04:04:23;101627.78;;;11.73;100.00
62708;BME280;48769;51.624;5.886;2024-03-22T04:06:48;101637.38;;;11.76;100.00
62708;BME280;48769;51.624;5.886;2024-03-22T04:09:14;101625.94;;;11.75;100.00
62708;BME280;48769;51.624;5.886;2024-03-22T04:11:39;101627.72;;;11.75;100.00
62708;BME280;48769;51.624;5.886;2024-03-22T04:14:05;101624.38;;;11.71;100.00
62708;BME280;48769;51.624;5.886;2024-03-22T04:16:31;101619.84;;;11.73;100.00
62708;BME280;48769;51.624;5.886;2024-03-22T04:18:59;101624.22;;;11.74;100.00
62708;BME280;48769;51.624;5.886;2024-03-22T04:21:24;101621.72;;;11.71;100.00
62708;BME280;48769;51.624;5.886;2024-03-22T04:23:50;101624.38;;;11.71;100.00
62708;BME280;48769;51.624;5.886;2024-03-22T04:26:15;101625.22;;;11.72;100.00
62708;BME280;48769;51.624;5.886;2024-03-22T04:28:40;101620.78;;;11.72;100.00
62708;BME280;48769;51.624;5.886;2024-03-22T04:31:08;101621.63;;;11.73;100.00
62708;BME280;48769;51.624;5.886;2024-03-22T04:33:37;101624.22;;;11.74;100.00
62708;BME280;48769;51.624;5.886;2024-03-22T04:36:03;101620.66;;;11.75;100.00
62708;BME280;48769;51.624;5.886;2024-03-22T04:38:29;101613.50;;;11.77;100.00
62708;BME280;48769;51.624;5.886;2024-03-22T04:40:55;101616.94;;;11.79;100.00
62708;BME280;48769;51.624;5.886;2024-03-22T04:43:22;101616.78;;;11.82;100.00
62708;BME280;48769;51.624;5.886;2024-03-22T04:45:48;101615.94;;;11.82;100.00
62708;BME280;48769;51.624;5.886;2024-03-22T04:48:16;101623.81;;;11.83;100.00
62708;BME280;48769;51.624;5.886;2024-03-22T04:50:41;101632.56;;;11.85;100.00
62708;BME280;48769;51.624;5.886;2024-03-22T04:53:07;101621.00;;;11.88;100.00
62708;BME280;48769;51.624;5.886;2024-03-22T04:55:32;101630.72;;;11.87;100.00
62708;BME280;48769;51.624;5.886;2024-03-22T04:57:58;101621.84;;;11.88;100.00
62708;BME280;48769;51.624;5.886;2024-03-22T05:00:23;101620.00;;;11.90;100.00
62708;BME280;48769;51.624;5.886;2024-03-22T05:02:50;101611.25;;;11.88;100.00
62708;BME280;48769;51.624;5.886;2024-03-22T05:05:16;101612.19;;;11.87;100.00
62708;BME280;48769;51.624;5.886;2024-03-22T05:07:41;101608.00;;;11.82;100.00
62708;BME280;48769;51.624;5.886;2024-03-22T05:10:06;101603.50;;;11.84;100.00
62708;BME280;48769;51.624;5.886;2024-03-22T05:12:32;101600.91;;;11.82;100.00
62708;BME280;48769;51.624;5.886;2024-03-22T05:14:57;101592.97;;;11.82;100.00
62708;BME280;48769;51.624;5.886;2024-03-22T05:17:22;101587.03;;;11.77;100.00
62708;BME280;48769;51.624;5.886;2024-03-22T05:19:48;101587.09;;;11.76;100.00
62708;BME280;48769;51.624;5.886;2024-03-22T05:22:13;101588.16;;;11.72;100.00
62708;BME280;48769;51.624;5.886;2024-03-22T05:24:39;101595.25;;;11.71;100.00
62708;BME280;48769;51.624;5.886;2024-03-22T05:27:04;101591.75;;;11.70;100.00
62708;BME280;48769;51.624;5.886;2024-03-22T05:29:30;101590.94;;;11.68;100.00
62708;BME280;48769;51.624;5.886;2024-03-22T05:31:55;101586.72;;;11.64;100.00
62708;BME280;48769;51.624;5.886;2024-03-22T05:34:20;101596.38;;;11.65;100.00
62708;BME280;48769;51.624;5.886;2024-03-22T05:36:46;101585.91;;;11.62;100.00
62708;BME280;48769;51.624;5.886;2024-03-22T05:39:11;101578.97;;;11.60;100.00
62708;BME280;48769;51.624;5.886;2024-03-22T05:41:37;101582.41;;;11.62;100.00
62708;BME280;48769;51.624;5.886;2024-03-22T05:44:03;101581.59;;;11.60;100.00
62708;BME280;48769;51.624;5.886;2024-03-22T05:46:31;101586.84;;;11.61;100.00
62708;BME280;48769;51.624;5.886;2024-03-22T05:48:57;101583.41;;;11.59;100.00
62708;BME280;48769;51.624;5.886;2024-03-22T05:51:24;101578.09;;;11.59;100.00
62708;BME280;48769;51.624;5.886;2024-03-22T05:53:49;101580.69;;;11.61;100.00
62708;BME280;48769;51.624;5.886;2024-03-22T05:56:14;101577.97;;;11.62;100.00
62708;BME280;48769;51.624;5.886;2024-03-22T05:58:40;101581.34;;;11.66;100.00
62708;BME280;48769;51.624;5.886;2024-03-22T06:01:05;101584.78;;;11.68;100.00
62708;BME280;48769;51.624;5.886;2024-03-22T06:03:30;101587.44;;;11.68;100.00
62708;BME280;48769;51.624;5.886;2024-03-22T06:05:56;101584.66;;;11.71;100.00
62708;BME280;48769;51.624;5.886;2024-03-22T06:08:25;101576.72;;;11.71;100.00
62708;BME280;48769;51.624;5.886;2024-03-22T06:10:52;101575.88;;;11.70;100.00
62708;BME280;48769;51.624;5.886;2024-03-22T06:13:17;101583.72;;;11.72;100.00
62708;BME280;48769;51.624;5.886;2024-03-22T06:15:43;101580.13;;;11.73;100.00
62708;BME280;48769;51.624;5.886;2024-03-22T06:18:11;101580.13;;;11.73;100.00
62708;BME280;48769;51.624;5.886;2024-03-22T06:20:36;101581.88;;;11.74;100.00
62708;BME280;48769;51.624;5.886;2024-03-22T06:23:01;101587.16;;;11.74;100.00
62708;BME280;48769;51.624;5.886;2024-03-22T06:25:33;101590.44;;;11.79;100.00
62708;BME280;48769;51.624;5.886;2024-03-22T06:27:58;101587.66;;;11.82;100.00
62708;BME280;48769;51.624;5.886;2024-03-22T06:30:24;101586.75;;;11.83;100.00
62708;BME280;48769;51.624;5.886;2024-03-22T06:32:49;101582.13;;;11.88;100.00
62708;BME280;48769;51.624;5.886;2024-03-22T06:35:15;101581.16;;;11.91;100.00
62708;BME280;48769;51.624;5.886;2024-03-22T06:37:40;101581.16;;;11.91;100.00
62708;BME280;48769;51.624;5.886;2024-03-22T06:40:09;101573.91;;;11.95;100.00
62708;BME280;48769;51.624;5.886;2024-03-22T06:42:35;101580.06;;;11.95;100.00
62708;BME280;48769;51.624;5.886;2024-03-22T06:45:02;101568.47;;;11.98;100.00
62708;BME280;48769;51.624;5.886;2024-03-22T06:47:28;101571.00;;;12.01;100.00
62708;BME280;48769;51.624;5.886;2024-03-22T06:49:53;101578.94;;;12.01;100.00
62708;BME280;48769;51.624;5.886;2024-03-22T06:52:19;101577.22;;;12.00;100.00
62708;BME280;48769;51.624;5.886;2024-03-22T06:54:45;101578.22;;;11.97;100.00
62708;BME280;48769;51.624;5.886;2024-03-22T06:57:10;101575.34;;;12.02;100.00
62708;BME280;48769;51.624;5.886;2024-03-22T06:59:36;101571.78;;;12.03;100.00
62708;BME280;48769;51.624;5.886;2024-03-22T07:02:07;101564.75;;;12.02;100.00
62708;BME280;48769;51.624;5.886;2024-03-22T07:04:34;101564.91;;;11.99;100.00
62708;BME280;48769;51.624;5.886;2024-03-22T07:07:00;101563.84;;;12.03;100.00
62708;BME280;48769;51.624;5.886;2024-03-22T07:09:25;101566.41;;;12.04;100.00
62708;BME280;48769;51.624;5.886;2024-03-22T07:11:53;101561.06;;;12.06;100.00
62708;BME280;48769;51.624;5.886;2024-03-22T07:14:18;101561.78;;;12.09;100.00
62708;BME280;48769;51.624;5.886;2024-03-22T07:16:45;101562.63;;;12.10;100.00
62708;BME280;48769;51.624;5.886;2024-03-22T07:19:11;101565.84;;;12.16;100.00
62708;BME280;48769;51.624;5.886;2024-03-22T07:21:36;101575.22;;;12.24;100.00
62708;BME280;48769;51.624;5.886;2024-03-22T07:24:02;101569.94;;;12.24;100.00
62708;BME280;48769;51.624;5.886;2024-03-22T07:26:28;101572.53;;;12.25;100.00
62708;BME280;48769;51.624;5.886;2024-03-22T07:28:53;101564.06;;;12.17;100.00
62708;BME280;48769;51.624;5.886;2024-03-22T07:31:18;101568.50;;;12.16;100.00
62708;BME280;48769;51.624;5.886;2024-03-22T07:33:44;101562.50;;;12.13;100.00
62708;BME280;48769;51.624;5.886;2024-03-22T07:36:09;101569.22;;;12.20;100.00
62708;BME280;48769;51.624;5.886;2024-03-22T07:38:34;101565.72;;;12.38;100.00
62708;BME280;48769;51.624;5.886;2024-03-22T07:41:00;101566.97;;;12.68;100.00
62708;BME280;48769;51.624;5.886;2024-03-22T07:43:25;101557.06;;;13.58;100.00
62708;BME280;48769;51.624;5.886;2024-03-22T07:45:50;101553.09;;;14.32;100.00
62708;BME280;48769;51.624;5.886;2024-03-22T07:48:15;101550.53;;;14.30;100.00
62708;BME280;48769;51.624;5.886;2024-03-22T07:50:41;101550.34;;;14.01;100.00
62708;BME280;48769;51.624;5.886;2024-03-22T07:53:06;101558.22;;;14.03;100.00
62708;BME280;48769;51.624;5.886;2024-03-22T07:55:32;101548.00;;;13.95;100.00
62708;BME280;48769;51.624;5.886;2024-03-22T07:57:57;101551.66;;;13.77;100.00
62708;BME280;48769;51.624;5.886;2024-03-22T08:00:23;101555.53;;;13.87;100.00
62708;BME280;48769;51.624;5.886;2024-03-22T08:02:52;101555.16;;;13.77;100.00
62708;BME280;48769;51.624;5.886;2024-03-22T08:05:17;101557.44;;;13.68;100.00
62708;BME280;48769;51.624;5.886;2024-03-22T08:07:42;101560.31;;;13.80;100.00
62708;BME280;48769;51.624;5.886;2024-03-22T08:10:09;101563.81;;;13.65;100.00
62708;BME280;48769;51.624;5.886;2024-03-22T08:12:35;101553.50;;;13.59;100.00
62708;BME280;48769;51.624;5.886;2024-03-22T08:15:00;101556.63;;;13.50;100.00
62708;BME280;48769;51.624;5.886;2024-03-22T08:17:25;101555.84;;;13.48;100.00
62708;BME280;48769;51.624;5.886;2024-03-22T08:19:51;101550.53;;;13.48;100.00
62708;BME280;48769;51.624;5.886;2024-03-22T08:22:16;101558.34;;;13.51;100.00
62708;BME280;48769;51.624;5.886;2024-03-22T08:24:42;101552.59;;;13.43;100.00
62708;BME280;48769;51.624;5.886;2024-03-22T08:27:07;101557.91;;;13.43;100.00
62708;BME280;48769;51.624;5.886;2024-03-22T08:29:32;101559.22;;;13.34;100.00
62708;BME280;48769;51.624;5.886;2024-03-22T08:31:58;101559.84;;;13.39;100.00
62708;BME280;48769;51.624;5.886;2024-03-22T08:34:23;101555.25;;;13.43;100.00
62708;BME280;48769;51.624;5.886;2024-03-22T08:36:49;101562.13;;;13.29;100.00
62708;BME280;48769;51.624;5.886;2024-03-22T08:39:14;101551.84;;;13.22;100.00
62708;BME280;48769;51.624;5.886;2024-03-22T08:41:42;101553.66;;;13.21;100.00
62708;BME280;48769;51.624;5.886;2024-03-22T08:44:07;101562.56;;;13.20;100.00
62708;BME280;48769;51.624;5.886;2024-03-22T08:46:33;101551.31;;;13.15;100.00
62708;BME280;48769;51.624;5.886;2024-03-22T08:48:58;101543.44;;;13.14;100.00
62708;BME280;48769;51.624;5.886;2024-03-22T08:51:23;101541.25;;;13.04;100.00
62708;BME280;48769;51.624;5.886;2024-03-22T08:53:49;101551.16;;;13.01;100.00
62708;BME280;48769;51.624;5.886;2024-03-22T08:56:14;101551.31;;;12.98;100.00
62708;BME280;48769;51.624;5.886;2024-03-22T08:58:39;101540.88;;;12.95;100.00
62708;BME280;48769;51.624;5.886;2024-03-22T09:01:05;101543.97;;;13.03;100.00
62708;BME280;48769;51.624;5.886;2024-03-22T09:03:31;101536.34;;;12.97;100.00
62708;BME280;48769;51.624;5.886;2024-03-22T09:05:56;101544.13;;;13.00;100.00
62708;BME280;48769;51.624;5.886;2024-03-22T09:08:21;101545.56;;;13.07;100.00
62708;BME280;48769;51.624;5.886;2024-03-22T09:10:47;101535.63;;;13.10;100.00
62708;BME280;48769;51.624;5.886;2024-03-22T09:13:13;101534.94;;;13.07;100.00
62708;BME280;48769;51.624;5.886;2024-03-22T09:15:39;101533.34;;;13.03;100.00
62708;BME280;48769;51.624;5.886;2024-03-22T09:18:04;101534.09;;;13.06;100.00
62708;BME280;48769;51.624;5.886;2024-03-22T09:20:30;101525.50;;;13.01;100.00
62708;BME280;48769;51.624;5.886;2024-03-22T09:22:57;101535.72;;;12.92;100.00
62708;BME280;48769;51.624;5.886;2024-03-22T09:25:23;101530.94;;;12.98;100.00
62708;BME280;48769;51.624;5.886;2024-03-22T09:27:49;101535.47;;;12.96;100.00
62708;BME280;48769;51.624;5.886;2024-03-22T09:30:15;101544.13;;;13.00;100.00
62708;BME280;48769;51.624;5.886;2024-03-22T09:32:40;101526.03;;;13.08;100.00
62708;BME280;48769;51.624;5.886;2024-03-22T09:35:06;101525.25;;;13.06;100.00
62708;BME280;48769;51.624;5.886;2024-03-22T09:37:31;101526.84;;;13.10;100.00
62708;BME280;48769;51.624;5.886;2024-03-22T09:39:58;101533.38;;;13.20;100.00
62708;BME280;48769;51.624;5.886;2024-03-22T09:42:25;101516.13;;;13.12;100.00
62708;BME280;48769;51.624;5.886;2024-03-22T09:44:51;101518.00;;;13.09;100.00
62708;BME280;48769;51.624;5.886;2024-03-22T09:47:20;101517.44;;;13.03;100.00
62708;BME280;48769;51.624;5.886;2024-03-22T09:49:46;101510.69;;;12.97;100.00
62708;BME280;48769;51.624;5.886;2024-03-22T09:52:14;101514.50;;;12.92;100.00
62708;BME280;48769;51.624;5.886;2024-03-22T09:54:46;101504.28;;;13.01;100.00
62708;BME280;48769;51.624;5.886;2024-03-22T09:57:24;101503.97;;;13.07;100.00
62708;BME280;48769;51.624;5.886;2024-03-22T09:59:51;101497.81;;;13.07;100.00
62708;BME280;48769;51.624;5.886;2024-03-22T10:02:17;101501.06;;;13.12;100.00
62708;BME280;48769;51.624;5.886;2024-03-22T10:04:43;101501.53;;;13.20;100.00
62708;BME280;48769;51.624;5.886;2024-03-22T10:07:08;101499.44;;;13.27;100.00
62708;BME280;48769;51.624;5.886;2024-03-22T10:09:35;101496.75;;;13.09;100.00
62708;BME280;48769;51.624;5.886;2024-03-22T10:12:01;101506.69;;;13.06;100.00
62708;BME280;48769;51.624;5.886;2024-03-22T10:14:26;101504.81;;;13.08;100.00
62708;BME280;48769;51.624;5.886;2024-03-22T10:16:52;101503.13;;;13.07;100.00
62708;BME280;48769;51.624;5.886;2024-03-22T10:19:21;101501.91;;;13.13;100.00
62708;BME280;48769;51.624;5.886;2024-03-22T10:22:00;101492.94;;;13.15;100.00
62708;BME280;48769;51.624;5.886;2024-03-22T10:24:26;101495.16;;;13.24;100.00
62708;BME280;48769;51.624;5.886;2024-03-22T10:26:52;101492.25;;;13.29;100.00
62708;BME280;48769;51.624;5.886;2024-03-22T10:29:17;101493.84;;;13.33;100.00
62708;BME280;48769;51.624;5.886;2024-03-22T10:31:45;101490.47;;;13.29;100.00
62708;BME280;48769;51.624;5.886;2024-03-22T10:34:12;101498.34;;;13.31;100.00
62708;BME280;48769;51.624;5.886;2024-03-22T10:36:38;101485.63;;;13.20;100.00
62708;BME280;48769;51.624;5.886;2024-03-22T10:39:05;101490.13;;;13.18;100.00
62708;BME280;48769;51.624;5.886;2024-03-22T10:41:30;101493.91;;;13.14;100.00
62708;BME280;48769;51.624;5.886;2024-03-22T10:43:57;101491.00;;;13.19;100.00
62708;BME280;48769;51.624;5.886;2024-03-22T10:46:29;101493.91;;;13.14;100.00
62708;BME280;48769;51.624;5.886;2024-03-22T10:48:55;101498.19;;;13.17;100.00
62708;BME280;48769;51.624;5.886;2024-03-22T10:51:21;101491.41;;;13.11;100.00
62708;BME280;48769;51.624;5.886;2024-03-22T10:53:54;101495.75;;;13.12;100.00
62708;BME280;48769;51.624;5.886;2024-03-22T10:56:21;101490.44;;;13.12;100.00
62708;BME280;48769;51.624;5.886;2024-03-22T10:58:48;101492.19;;;13.13;100.00
62708;BME280;48769;51.624;5.886;2024-03-22T11:01:27;101479.16;;;13.08;100.00
62708;BME280;48769;51.624;5.886;2024-03-22T11:04:34;101483.28;;;13.14;100.00
62708;BME280;48769;51.624;5.886;2024-03-22T11:07:00;101481.72;;;13.10;100.00
62708;BME280;48769;51.624;5.886;2024-03-22T11:09:28;101486.34;;;13.06;100.00
62708;BME280;48769;51.624;5.886;2024-03-22T11:11:55;101484.75;;;13.02;100.00
62708;BME280;48769;51.624;5.886;2024-03-22T11:14:33;101479.06;;;12.93;100.00
62708;BME280;48769;51.624;5.886;2024-03-22T11:16:58;101475.91;;;13.03;100.00
62708;BME280;48769;51.624;5.886;2024-03-22T11:19:23;101489.53;;;12.96;100.00
62708;BME280;48769;51.624;5.886;2024-03-22T11:21:49;101482.28;;;12.99;100.00
62708;BME280;48769;51.624;5.886;2024-03-22T11:24:15;101477.66;;;13.03;100.00
62708;BME280;48769;51.624;5.886;2024-03-22T11:26:40;101480.16;;;13.06;100.00
62708;BME280;48769;51.624;5.886;2024-03-22T11:29:06;101472.28;;;13.04;100.00
62708;BME280;48769;51.624;5.886;2024-03-22T11:31:31;101476.59;;;13.07;100.00
62708;BME280;48769;51.624;5.886;2024-03-22T11:33:57;101469.16;;;12.96;100.00
62708;BME280;48769;51.624;5.886;2024-03-22T11:36:23;101469.56;;;12.89;100.00
62708;BME280;48769;51.624;5.886;2024-03-22T11:38:48;101479.22;;;12.90;100.00
62708;BME280;48769;51.624;5.886;2024-03-22T11:41:26;101481.28;;;12.84;100.00
62708;BME280;48769;51.624;5.886;2024-03-22T11:43:53;101475.66;;;12.91;100.00
62708;BME280;48769;51.624;5.886;2024-03-22T11:46:19;101478.69;;;12.83;100.00
62708;BME280;48769;51.624;5.886;2024-03-22T11:48:52;101485.38;;;12.90;100.00
62708;BME280;48769;51.624;5.886;2024-03-22T11:51:18;101484.53;;;12.90;100.00
62708;BME280;48769;51.624;5.886;2024-03-22T11:53:53;101481.44;;;12.81;100.00
62708;BME280;48769;51.624;5.886;2024-03-22T11:56:21;101473.63;;;12.78;100.00
62708;BME280;48769;51.624;5.886;2024-03-22T11:58:48;101482.19;;;12.83;100.00
62708;BME280;48769;51.624;5.886;2024-03-22T12:01:15;101478.63;;;12.84;100.00
62708;BME280;48769;51.624;5.886;2024-03-22T12:03:43;101474.56;;;12.77;100.00
62708;BME280;48769;51.624;5.886;2024-03-22T12:06:09;101475.56;;;12.75;100.00
62708;BME280;48769;51.624;5.886;2024-03-22T12:08:35;101462.69;;;12.67;100.00
62708;BME280;48769;51.624;5.886;2024-03-22T12:11:03;101457.09;;;12.73;100.00
62708;BME280;48769;51.624;5.886;2024-03-22T12:13:30;101455.78;;;12.82;100.00
62708;BME280;48769;51.624;5.886;2024-03-22T12:15:55;101442.03;;;12.91;100.00
62708;BME280;48769;51.624;5.886;2024-03-22T12:18:20;101445.06;;;13.01;100.00
62708;BME280;48769;51.624;5.886;2024-03-22T12:20:46;101444.66;;;13.08;100.00
62708;BME280;48769;51.624;5.886;2024-03-22T12:23:11;101443.34;;;13.00;100.00
62708;BME280;48769;51.624;5.886;2024-03-22T12:25:36;101432.97;;;12.95;100.00
62708;BME280;48769;51.624;5.886;2024-03-22T12:28:05;101428.25;;;12.84;100.00
62708;BME280;48769;51.624;5.886;2024-03-22T12:30:30;101417.94;;;12.78;100.00
62708;BME280;48769;51.624;5.886;2024-03-22T12:32:55;101419.22;;;12.71;100.00
62708;BME280;48769;51.624;5.886;2024-03-22T12:35:21;101410.31;;;12.72;100.00